Nearby METAR Reports

 

KDWH - Houston/Dw Hooks, Texas, USA
Distance from station: WNW 3mi, 6km
Updated: 10/16/2021 2:53am
Clear
Clear
 Wind from N
Wind: N 8 mph , 13 km/h, Gust: 20 mph , 31 km/h
Temperature: 66°F , 19°C
Dew Point: 50°F , 10°C
Humidity: 56%
Barometer: 30.18 inHg , 1022 hPa
Clouds: Clear
Visibility: 10 miles , 16 km
2021/10/16 07:53 KDWH 160753Z AUTO 36007G17KT 10SM CLR 19/10 A3018 RMK AO2 SLP215 T01890100
KIAH - Houston/Intnl, Texas, USA
Distance from station: ESE 9mi, 14km
Updated: 10/16/2021 2:53am
Mostly cloudy
Mostly cloudy
 Wind from N
Wind: N 14 mph , 22 km/h
Temperature: 66°F , 19°C
Dew Point: 48°F , 9°C
Humidity: 52%
Barometer: 30.16 inHg , 1021.3 hPa
Clouds: Mostly cloudy
Visibility: 10 miles , 16 km
Cloud details: Few Clouds 15000 ft
Mostly cloudy 25000 ft
2021/10/16 07:53 KIAH 160753Z 01012KT 10SM FEW150 BKN250 19/09 A3016 RMK AO2 SLP213 T01890094
 
KCXO - Conroe, Texas, USA
Distance from station: NNE 21mi, 34km
Updated: 10/16/2021 2:53am
Clear
Clear
 Wind from NNE
Wind: NNE 10 mph , 17 km/h, Gust: 18 mph , 30 km/h
Temperature: 63°F , 17°C
Dew Point: 48°F , 9°C
Humidity: 59%
Barometer: 30.19 inHg , 1022.4 hPa
Clouds: Clear
Visibility: 10 miles , 16 km
2021/10/16 07:53 KCXO 160753Z AUTO 02009G16KT 10SM CLR 17/09 A3019 RMK AO2 SLP220 T01720094
KMCJ - Houston/Univ, Texas, USA
Distance from station: SSE 24mi, 39km
Updated: 10/16/2021 3:35am
Few Clouds
Few Clouds
 Wind from N
Wind: N 18 mph , 30 km/h, Gust: 26 mph , 43 km/h
Temperature: 66°F , 19°C
Dew Point: 48°F , 9°C
Humidity: 52%
Barometer: 30.13 inHg , 1020.3 hPa
Clouds: Few Clouds
Visibility: 10 miles , 16 km
Cloud details: Few Clouds 6500 ft
2021/10/16 08:35 KMCJ 160835Z AUTO 36016G23KT 330V030 10SM FEW065 19/09 A3013 RMK A01
 
KTME - Houston Exec, Texas, USA
Distance from station: SW 30mi, 48km
Updated: 10/16/2021 3:35am
Clear
Clear
 Wind from N
Wind: N 12 mph , 19 km/h
Temperature: 63°F , 17°C
Dew Point: 52°F , 11°C
Humidity: 68%
Barometer: 30.19 inHg , 1022.4 hPa
Clouds: Clear
Visibility: 10 miles , 16 km
2021/10/16 08:35 KTME 160835Z AUTO 01010KT 10SM CLR 17/11 A3019 RMK AO2
KHOU - Houston/Hobby, Texas, USA
Distance from station: SSE 32mi, 51km
Updated: 10/16/2021 2:53am
Mostly cloudy
Mostly cloudy
 Wind from N
Wind: N 18 mph , 30 km/h
Temperature: 70°F , 21°C
Dew Point: 52°F , 11°C
Humidity: 53%
Barometer: 30.13 inHg , 1020.3 hPa
Clouds: Mostly cloudy
Visibility: 10 miles , 16 km
Cloud details: Few Clouds 6000 ft
Mostly cloudy 25000 ft
2021/10/16 07:53 KHOU 160753Z 01016KT 10SM FEW060 BKN250 21/11 A3013 RMK AO2 PK WND 35026/0712 SLP209 T02060106
 
KSGR - Houston/Sugar La, Texas, USA
Distance from station: SSW 32mi, 51km
Updated: 10/16/2021 2:53am
Clear
Clear
 Wind from N
Wind: N 23 mph , 37 km/h, Gust: 28 mph , 44 km/h
Temperature: 70°F , 21°C
Dew Point: 48°F , 9°C
Humidity: 46%
Barometer: 30.14 inHg , 1020.7 hPa
Clouds: Clear
Visibility: 10 miles , 16 km
2021/10/16 07:53 KSGR 160753Z AUTO 01020G24KT 10SM CLR 21/09 A3014 RMK AO2 PK WND 03026/0712 SLP207 T02060094
K6R3 - Cleveland Muni, Texas, USA
Distance from station: NE 36mi, 58km
Updated: 10/16/2021 3:15am
Clear
Clear
 Wind from N
Wind: N 10 mph , 17 km/h, Gust: 17 mph , 28 km/h
Temperature: 63°F , 17°C
Dew Point: 46°F , 8°C
Humidity: 56%
Barometer: 30.18 inHg , 1022 hPa
Clouds: Clear
Visibility: 10 miles , 16 km
2021/10/16 08:15 K6R3 160815Z AUTO 36009G15KT 10SM CLR 17/08 A3018 RMK AO2 T01740076
 
KAXH - Houston/Southwst, Texas, USA
Distance from station: S 37mi, 60km
Updated: 10/16/2021 3:35am
Clear
Clear
 Wind from N
Wind: N 13 mph , 20 km/h, Gust: 20 mph , 31 km/h
Temperature: 68°F , 20°C
Dew Point: 50°F , 10°C
Humidity: 53%
Barometer: 30.15 inHg , 1021 hPa
Clouds: Clear
Visibility: 10 miles , 16 km
2021/10/16 08:35 KAXH 160835Z AUTO 01011G17KT 10SM CLR 20/10 A3015 RMK AO2 T01950095
KEFD - Houston/Ellingto, Texas, USA
Distance from station: SSE 37mi, 60km
Updated: 10/16/2021 2:50am
Few Clouds
Few Clouds
 Wind from N
Wind: N 23 mph , 37 km/h, Gust: 33 mph , 54 km/h
Temperature: 68°F , 20°C
Dew Point: 48°F , 9°C
Humidity: 49%
Barometer: 30.13 inHg , 1020.3 hPa
Clouds: Few Clouds
Visibility: 10 miles , 16 km
Cloud details: Few Clouds 6000 ft
2021/10/16 07:50 KEFD 160750Z 35020G29KT 10SM FEW060 20/09 A3013
 
KLVJ - Houston, Texas, USA
Distance from station: SSE 40mi, 64km
Updated: 10/16/2021 2:53am
Clear
Clear
 Wind from N
Wind: N 14 mph , 22 km/h, Gust: 23 mph , 37 km/h
Temperature: 70°F , 21°C
Dew Point: 54°F , 12°C
Humidity: 57%
Barometer: 30.14 inHg , 1020.7 hPa
Clouds: Clear
Visibility: 10 miles , 16 km
2021/10/16 07:53 KLVJ 160753Z AUTO 36012G20KT 10SM CLR 21/12 A3014 RMK AO2 SLP206 T02060117
KUTS - Huntsville, Texas, USA
Distance from station: N 48mi, 78km
Updated: 10/16/2021 2:53am
Clear
Clear
 Wind from varies
Wind: varies 6 mph , 9 km/h
Temperature: 61°F , 16°C
Dew Point: 48°F , 9°C
Humidity: 63%
Barometer: 30.21 inHg , 1023 hPa
Clouds: Clear
Visibility: 10 miles , 16 km
2021/10/16 07:53 KUTS 160753Z AUTO VRB05KT 10SM CLR 16/09 A3021 RMK AO2 SLP226 T01610094